This is the latest recevied weather packets stored in our database for station/object VA2CPJ. If no packets are shown the sender has not sent any weather packets the latest 10 day(s).
| Time | Temp. | Humidity | Pressure | Rain* | Wind** | Luminosity | Snow |
|---|---|---|---|---|---|---|---|
| 1777825524 | 10° C | 35% | 1015.7 hPa | - | - | - | - |
| 1777824623 | 10° C | 36% | 1015 hPa | - | - | - | - |
| 1777822260 | 9.44° C | 38% | 1015.7 hPa | - | - | - | - |
| 1777820423 | 9.44° C | 41% | 1016 hPa | - | - | - | - |
| 1777820125 | 8.89° C | 43% | 1017.1 hPa | - | - | - | - |
| 1777819521 | 8.89° C | 48% | 1017.4 hPa | - | - | - | - |
| 1777818927 | 8.33° C | 51% | 1017.4 hPa | - | - | - | - |
| 1777818025 | 8.89° C | 51% | 1016.7 hPa | - | - | - | - |
| 1777817421 | 8.33° C | 53% | 1017.1 hPa | - | - | - | - |
| 1777815934 | 7.78° C | 51% | 1018.1 hPa | - | - | - | - |
| 1777812933 | 7.22° C | 65% | 1018.4 hPa | - | - | - | - |
| 1777812635 | 6.67° C | 66% | 1017.7 hPa | - | - | - | - |
| 1777812031 | 6.11° C | 72% | 1017.7 hPa | - | - | - | - |
| 1777811745 | 6.11° C | 73% | 1018.8 hPa | - | - | - | - |
| 1777807534 | 4.44° C | 83% | 1018.8 hPa | - | - | - | - |
| 1777807239 | 3.89° C | 84% | 1017.7 hPa | - | - | - | - |
| 1777806956 | 3.89° C | 83% | 1018.8 hPa | - | - | - | - |
| 1777803623 | 3.33° C | 88% | 1017.7 hPa | - | - | - | - |
| 1777803460 | 3.33° C | 89% | 1018.8 hPa | - | - | - | - |
| 1777802424 | 3.33° C | 91% | 1017.7 hPa | - | - | 1802 W/m² | - |
| 1777802135 | 3.33° C | 90% | 1018.8 hPa | - | - | 1496 W/m² | - |
| 1777801829 | 3.33° C | 91% | 1017.7 hPa | - | - | 1247 W/m² | - |
| 1777799423 | 3.33° C | 95% | 1017.4 hPa | - | - | 19 W/m² | - |
| 1777799125 | 3.33° C | 95% | 1018.4 hPa | - | - | 4 W/m² | - |
| 1777798224 | 3.33° C | 95% | 1017.7 hPa | - | - | 0 W/m² | - |
* Rain since midnight (hover to see other rain measurements)
** Current wind speed in m/s (hover to see current wind gust speed)